sensor_id;sensor_type;location;lat;lon;timestamp;P1;durP1;ratioP1;P2;durP2;ratioP2
82473;SDS011;72098;53.276;6.116;2023-08-12T09:31:34;145.43;;;101.68;;
82473;SDS011;72098;53.276;6.116;2023-08-12T09:34:03;166.32;;;120.28;;
82473;SDS011;72098;53.276;6.116;2023-08-12T09:36:33;159.48;;;116.57;;
82473;SDS011;72098;53.276;6.116;2023-08-12T09:39:05;152.80;;;112.88;;
82473;SDS011;72098;53.276;6.116;2023-08-12T09:41:33;149.17;;;109.80;;
82473;SDS011;72098;53.276;6.116;2023-08-12T09:44:02;139.73;;;103.53;;
82473;SDS011;72098;53.276;6.116;2023-08-12T09:46:33;137.85;;;101.28;;
82473;SDS011;72098;53.276;6.116;2023-08-12T09:49:01;144.55;;;103.80;;
82473;SDS011;72098;53.276;6.116;2023-08-12T09:51:33;139.23;;;103.25;;
82473;SDS011;72098;53.276;6.116;2023-08-12T09:54:01;172.95;;;131.85;;
82473;SDS011;72098;53.276;6.116;2023-08-12T09:56:31;177.70;;;131.30;;
82473;SDS011;72098;53.276;6.116;2023-08-12T09:59:03;154.80;;;118.18;;
82473;SDS011;72098;53.276;6.116;2023-08-12T10:01:34;199.30;;;150.85;;
82473;SDS011;72098;53.276;6.116;2023-08-12T10:04:04;188.32;;;141.23;;
82473;SDS011;72098;53.276;6.116;2023-08-12T10:06:38;189.88;;;140.60;;
82473;SDS011;72098;53.276;6.116;2023-08-12T10:09:06;179.30;;;136.25;;
82473;SDS011;72098;53.276;6.116;2023-08-12T10:11:35;198.98;;;147.80;;
82473;SDS011;72098;53.276;6.116;2023-08-12T10:14:03;206.90;;;155.60;;
82473;SDS011;72098;53.276;6.116;2023-08-12T10:16:31;221.27;;;168.73;;
82473;SDS011;72098;53.276;6.116;2023-08-12T10:19:02;221.95;;;164.98;;
82473;SDS011;72098;53.276;6.116;2023-08-12T10:21:33;224.10;;;170.73;;
82473;SDS011;72098;53.276;6.116;2023-08-12T10:24:02;212.25;;;155.98;;
82473;SDS011;72098;53.276;6.116;2023-08-12T10:26:31;197.85;;;148.88;;
82473;SDS011;72098;53.276;6.116;2023-08-12T10:29:00;192.88;;;143.85;;
82473;SDS011;72098;53.276;6.116;2023-08-12T10:31:27;224.65;;;168.07;;
82473;SDS011;72098;53.276;6.116;2023-08-12T10:33:56;226.15;;;170.45;;
82473;SDS011;72098;53.276;6.116;2023-08-12T10:36:27;213.20;;;162.70;;
82473;SDS011;72098;53.276;6.116;2023-08-12T10:38:55;255.30;;;200.40;;
82473;SDS011;72098;53.276;6.116;2023-08-12T10:41:24;291.23;;;233.45;;
82473;SDS011;72098;53.276;6.116;2023-08-12T10:43:54;330.80;;;269.85;;
82473;SDS011;72098;53.276;6.116;2023-08-12T10:46:26;249.25;;;198.35;;
82473;SDS011;72098;53.276;6.116;2023-08-12T10:48:57;267.40;;;210.43;;
82473;SDS011;72098;53.276;6.116;2023-08-12T10:51:43;254.13;;;199.27;;
82473;SDS011;72098;53.276;6.116;2023-08-12T10:54:16;240.73;;;187.05;;
82473;SDS011;72098;53.276;6.116;2023-08-12T10:59:46;231.80;;;179.05;;
82473;SDS011;72098;53.276;6.116;2023-08-12T11:02:19;209.98;;;159.25;;
82473;SDS011;72098;53.276;6.116;2023-08-12T11:04:50;191.98;;;142.25;;
82473;SDS011;72098;53.276;6.116;2023-08-12T11:07:22;189.13;;;143.77;;
82473;SDS011;72098;53.276;6.116;2023-08-12T11:09:56;168.43;;;125.93;;
82473;SDS011;72098;53.276;6.116;2023-08-12T11:12:30;174.03;;;130.97;;
82473;SDS011;72098;53.276;6.116;2023-08-12T11:14:59;152.30;;;116.03;;
82473;SDS011;72098;53.276;6.116;2023-08-12T11:17:34;160.05;;;120.80;;
82473;SDS011;72098;53.276;6.116;2023-08-12T11:20:04;147.55;;;110.53;;
82473;SDS011;72098;53.276;6.116;2023-08-12T11:22:37;150.38;;;110.75;;
82473;SDS011;72098;53.276;6.116;2023-08-12T11:25:07;148.90;;;112.55;;
82473;SDS011;72098;53.276;6.116;2023-08-12T11:27:39;126.30;;;96.07;;
82473;SDS011;72098;53.276;6.116;2023-08-12T11:32:38;119.22;;;91.97;;
82473;SDS011;72098;53.276;6.116;2023-08-12T11:35:07;136.05;;;104.80;;
82473;SDS011;72098;53.276;6.116;2023-08-12T11:37:39;149.32;;;113.63;;
82473;SDS011;72098;53.276;6.116;2023-08-12T11:40:08;167.48;;;126.00;;
82473;SDS011;72098;53.276;6.116;2023-08-12T11:42:38;167.52;;;128.10;;
82473;SDS011;72098;53.276;6.116;2023-08-12T11:45:06;167.52;;;126.10;;
82473;SDS011;72098;53.276;6.116;2023-08-12T11:47:36;180.77;;;132.40;;
82473;SDS011;72098;53.276;6.116;2023-08-12T11:50:05;193.68;;;141.75;;
82473;SDS011;72098;53.276;6.116;2023-08-12T11:52:34;196.20;;;146.10;;
82473;SDS011;72098;53.276;6.116;2023-08-12T11:55:05;182.20;;;135.60;;
82473;SDS011;72098;53.276;6.116;2023-08-12T11:57:33;185.20;;;137.48;;
82473;SDS011;72098;53.276;6.116;2023-08-12T12:00:02;185.40;;;137.75;;
82473;SDS011;72098;53.276;6.116;2023-08-12T12:02:44;168.13;;;123.40;;
82473;SDS011;72098;53.276;6.116;2023-08-12T12:05:15;155.20;;;117.07;;
82473;SDS011;72098;53.276;6.116;2023-08-12T12:07:47;207.85;;;153.80;;
82473;SDS011;72098;53.276;6.116;2023-08-12T12:10:19;208.00;;;148.57;;
82473;SDS011;72098;53.276;6.116;2023-08-12T12:15:16;230.57;;;164.05;;
82473;SDS011;72098;53.276;6.116;2023-08-12T12:17:45;256.63;;;192.60;;
82473;SDS011;72098;53.276;6.116;2023-08-12T12:20:13;302.42;;;233.43;;
82473;SDS011;72098;53.276;6.116;2023-08-12T12:22:42;302.40;;;238.85;;
82473;SDS011;72098;53.276;6.116;2023-08-12T12:25:11;289.20;;;224.70;;
82473;SDS011;72098;53.276;6.116;2023-08-12T12:27:41;258.77;;;203.20;;
82473;SDS011;72098;53.276;6.116;2023-08-12T12:30:12;245.35;;;189.80;;
82473;SDS011;72098;53.276;6.116;2023-08-12T12:32:41;237.55;;;180.05;;
82473;SDS011;72149;53.232;6.556;2023-08-12T12:35:09;227.25;;;170.18;;
82473;SDS011;72149;53.232;6.556;2023-08-12T12:37:38;205.73;;;153.98;;
82473;SDS011;72149;53.232;6.556;2023-08-12T12:40:06;190.55;;;141.65;;
82473;SDS011;72149;53.232;6.556;2023-08-12T12:42:34;192.73;;;138.90;;
82473;SDS011;72149;53.232;6.556;2023-08-12T12:45:04;194.95;;;143.48;;
82473;SDS011;72149;53.232;6.556;2023-08-12T12:47:32;188.55;;;137.93;;
82473;SDS011;72149;53.232;6.556;2023-08-12T12:50:00;179.02;;;132.63;;
82473;SDS011;72149;53.232;6.556;2023-08-12T12:52:28;163.77;;;120.05;;
82473;SDS011;72149;53.232;6.556;2023-08-12T12:54:56;150.65;;;110.65;;
82473;SDS011;72149;53.232;6.556;2023-08-12T12:57:25;144.95;;;107.25;;
82473;SDS011;72149;53.232;6.556;2023-08-12T12:59:53;141.57;;;105.28;;
82473;SDS011;72149;53.232;6.556;2023-08-12T13:02:22;125.57;;;93.47;;
82473;SDS011;72149;53.232;6.556;2023-08-12T13:04:50;134.35;;;99.40;;
82473;SDS011;72149;53.232;6.556;2023-08-12T13:07:18;127.72;;;95.82;;
82473;SDS011;72149;53.232;6.556;2023-08-12T13:09:46;119.25;;;89.40;;
82473;SDS011;72149;53.232;6.556;2023-08-12T13:12:13;121.60;;;89.93;;
82473;SDS011;72149;53.232;6.556;2023-08-12T13:14:41;110.10;;;80.07;;
82473;SDS011;72149;53.232;6.556;2023-08-12T13:17:09;113.45;;;84.50;;
82473;SDS011;72149;53.232;6.556;2023-08-12T13:19:38;107.00;;;79.47;;
82473;SDS011;72149;53.232;6.556;2023-08-12T13:22:06;100.03;;;74.63;;
82473;SDS011;72149;53.232;6.556;2023-08-12T13:24:35;94.75;;;69.47;;
82473;SDS011;72149;53.232;6.556;2023-08-12T13:27:03;93.70;;;69.57;;
82473;SDS011;72149;53.232;6.556;2023-08-12T13:29:31;85.38;;;60.45;;
82473;SDS011;72149;53.232;6.556;2023-08-12T13:31:59;75.85;;;55.50;;
82473;SDS011;72149;53.232;6.556;2023-08-12T13:34:27;73.57;;;50.72;;
82473;SDS011;72149;53.232;6.556;2023-08-12T13:36:56;49.03;;;35.72;;
82473;SDS011;72149;53.232;6.556;2023-08-12T13:39:24;42.70;;;30.55;;
82473;SDS011;72149;53.232;6.556;2023-08-12T13:41:52;34.60;;;24.92;;
82473;SDS011;72149;53.232;6.556;2023-08-12T13:44:21;32.13;;;22.05;;
82473;SDS011;72149;53.232;6.556;2023-08-12T13:46:49;26.23;;;18.75;;
82473;SDS011;72149;53.232;6.556;2023-08-12T13:49:16;25.95;;;17.42;;
82473;SDS011;72149;53.232;6.556;2023-08-12T13:51:44;22.15;;;15.60;;
82473;SDS011;72149;53.232;6.556;2023-08-12T13:54:13;23.20;;;14.25;;
82473;SDS011;72149;53.232;6.556;2023-08-12T13:56:41;20.88;;;14.65;;
82473;SDS011;72149;53.232;6.556;2023-08-12T13:59:10;19.92;;;11.38;;
82473;SDS011;72149;53.232;6.556;2023-08-12T14:01:38;18.33;;;9.82;;
82473;SDS011;72149;53.232;6.556;2023-08-12T14:04:09;12.07;;;7.63;;
82473;SDS011;72149;53.232;6.556;2023-08-12T14:06:37;10.43;;;5.53;;
82473;SDS011;72149;53.232;6.556;2023-08-12T14:09:06;12.98;;;5.55;;
82473;SDS011;72149;53.232;6.556;2023-08-12T14:11:36;9.55;;;4.13;;
82473;SDS011;72149;53.232;6.556;2023-08-12T14:14:03;12.30;;;3.78;;
82473;SDS011;72149;53.232;6.556;2023-08-12T14:16:32;9.05;;;3.75;;
82473;SDS011;72149;53.232;6.556;2023-08-12T14:19:00;8.05;;;2.67;;
82473;SDS011;72149;53.232;6.556;2023-08-12T14:21:29;6.82;;;2.22;;
82473;SDS011;72149;53.232;6.556;2023-08-12T14:23:57;8.75;;;2.65;;
82473;SDS011;72149;53.232;6.556;2023-08-12T14:26:25;8.65;;;2.47;;
82473;SDS011;72149;53.232;6.556;2023-08-12T14:28:54;6.68;;;2.55;;
82473;SDS011;72149;53.232;6.556;2023-08-12T14:31:22;6.88;;;2.50;;
82473;SDS011;72149;53.232;6.556;2023-08-12T14:33:50;5.78;;;2.10;;
82473;SDS011;72149;53.232;6.556;2023-08-12T14:36:18;6.03;;;2.30;;
82473;SDS011;72149;53.232;6.556;2023-08-12T14:38:46;7.05;;;2.35;;
82473;SDS011;72149;53.232;6.556;2023-08-12T14:41:13;8.00;;;2.40;;
82473;SDS011;72149;53.232;6.556;2023-08-12T14:43:41;6.20;;;2.15;;
82473;SDS011;72149;53.232;6.556;2023-08-12T14:46:10;6.05;;;2.30;;
82473;SDS011;72149;53.232;6.556;2023-08-12T14:48:38;9.15;;;2.78;;
82473;SDS011;72149;53.232;6.556;2023-08-12T14:51:06;11.73;;;3.63;;
82473;SDS011;72149;53.232;6.556;2023-08-12T14:53:34;9.98;;;3.00;;
82473;SDS011;72149;53.232;6.556;2023-08-12T14:56:02;5.72;;;2.80;;
82473;SDS011;72149;53.232;6.556;2023-08-12T14:58:30;7.05;;;2.38;;
82473;SDS011;72149;53.232;6.556;2023-08-12T15:00:58;8.02;;;2.50;;
82473;SDS011;72149;53.232;6.556;2023-08-12T15:03:28;24.83;;;15.45;;
82473;SDS011;72149;53.232;6.556;2023-08-12T15:06:00;41.67;;;28.77;;
82473;SDS011;72149;53.232;6.556;2023-08-12T15:08:28;36.72;;;25.77;;
82473;SDS011;72149;53.232;6.556;2023-08-12T15:10:57;26.88;;;18.27;;
82473;SDS011;72149;53.232;6.556;2023-08-12T15:13:25;24.77;;;14.60;;
82473;SDS011;72149;53.232;6.556;2023-08-12T15:15:53;18.55;;;10.45;;
82473;SDS011;72149;53.232;6.556;2023-08-12T15:18:21;13.55;;;7.53;;
82473;SDS011;72149;53.232;6.556;2023-08-12T15:20:52;10.68;;;6.35;;
82473;SDS011;72149;53.232;6.556;2023-08-12T15:23:19;12.60;;;5.18;;
82473;SDS011;72149;53.232;6.556;2023-08-12T15:25:47;9.05;;;3.97;;
82473;SDS011;72149;53.232;6.556;2023-08-12T15:28:15;6.50;;;3.65;;
82473;SDS011;72149;53.232;6.556;2023-08-12T15:30:43;8.43;;;3.60;;
82473;SDS011;72149;53.232;6.556;2023-08-12T15:33:11;10.40;;;2.75;;
82473;SDS011;72149;53.232;6.556;2023-08-12T15:35:38;9.68;;;3.20;;
82473;SDS011;72149;53.232;6.556;2023-08-12T15:38:08;6.93;;;2.45;;
82473;SDS011;72149;53.232;6.556;2023-08-12T15:40:36;6.70;;;2.22;;
82473;SDS011;72149;53.232;6.556;2023-08-12T15:43:04;9.60;;;2.53;;
82473;SDS011;72149;53.232;6.556;2023-08-12T15:45:32;6.38;;;2.63;;
82473;SDS011;72149;53.232;6.556;2023-08-12T15:47:59;5.50;;;2.33;;
82473;SDS011;72149;53.232;6.556;2023-08-12T15:50:27;9.40;;;2.53;;
82473;SDS011;72149;53.232;6.556;2023-08-12T15:52:55;6.95;;;2.30;;
82473;SDS011;72149;53.232;6.556;2023-08-12T15:55:24;7.70;;;2.25;;
82473;SDS011;72149;53.232;6.556;2023-08-12T15:57:52;11.38;;;4.93;;
82473;SDS011;72149;53.232;6.556;2023-08-12T16:00:20;43.80;;;27.75;;
82473;SDS011;72149;53.232;6.556;2023-08-12T16:02:49;78.55;;;49.95;;
82473;SDS011;72149;53.232;6.556;2023-08-12T16:05:17;73.15;;;45.45;;
82473;SDS011;72149;53.232;6.556;2023-08-12T16:07:45;44.45;;;26.70;;
82473;SDS011;72149;53.232;6.556;2023-08-12T16:10:13;30.48;;;19.30;;
82473;SDS011;72149;53.232;6.556;2023-08-12T16:12:42;33.05;;;18.75;;
82473;SDS011;72149;53.232;6.556;2023-08-12T16:15:10;32.47;;;19.95;;
82473;SDS011;72149;53.232;6.556;2023-08-12T16:17:38;29.33;;;15.48;;
82473;SDS011;72149;53.232;6.556;2023-08-12T16:20:06;19.55;;;10.25;;
82473;SDS011;72149;53.232;6.556;2023-08-12T16:22:35;20.17;;;10.18;;
82473;SDS011;72149;53.232;6.556;2023-08-12T16:25:03;13.25;;;6.60;;
82473;SDS011;72149;53.232;6.556;2023-08-12T16:27:31;10.23;;;5.20;;
82473;SDS011;72149;53.232;6.556;2023-08-12T16:30:01;10.57;;;4.88;;
82473;SDS011;72149;53.232;6.556;2023-08-12T16:32:28;12.50;;;4.72;;
82473;SDS011;72149;53.232;6.556;2023-08-12T16:34:56;40.65;;;23.45;;
82473;SDS011;72149;53.232;6.556;2023-08-12T16:37:24;100.45;;;63.90;;
82473;SDS011;72149;53.232;6.556;2023-08-12T16:39:52;95.47;;;62.63;;
82473;SDS011;72149;53.232;6.556;2023-08-12T16:42:20;108.13;;;71.85;;
82473;SDS011;72149;53.232;6.556;2023-08-12T16:44:48;87.25;;;57.92;;
82473;SDS011;72149;53.232;6.556;2023-08-12T16:47:17;52.75;;;33.50;;
82473;SDS011;72149;53.232;6.556;2023-08-12T16:49:45;36.50;;;21.92;;
82473;SDS011;72149;53.232;6.556;2023-08-12T16:52:13;29.33;;;19.20;;
82473;SDS011;72149;53.232;6.556;2023-08-12T16:54:41;28.80;;;18.73;;
82473;SDS011;72149;53.232;6.556;2023-08-12T16:57:09;24.17;;;12.85;;
82473;SDS011;72149;53.232;6.556;2023-08-12T16:59:37;23.50;;;12.80;;
82473;SDS011;72149;53.232;6.556;2023-08-12T17:02:05;16.42;;;7.80;;
82473;SDS011;72149;53.232;6.556;2023-08-12T17:04:34;16.15;;;8.60;;
82473;SDS011;72149;53.232;6.556;2023-08-12T17:07:02;13.50;;;6.63;;
82473;SDS011;72149;53.232;6.556;2023-08-12T17:09:30;9.68;;;5.55;;
82473;SDS011;72149;53.232;6.556;2023-08-12T17:11:59;8.73;;;3.78;;
82473;SDS011;72149;53.232;6.556;2023-08-12T17:14:27;9.65;;;4.63;;
82473;SDS011;72149;53.232;6.556;2023-08-12T17:16:56;12.77;;;4.28;;
82473;SDS011;72149;53.232;6.556;2023-08-12T17:19:25;11.90;;;4.05;;
82473;SDS011;72149;53.232;6.556;2023-08-12T17:21:54;9.68;;;3.78;;
82473;SDS011;72149;53.232;6.556;2023-08-12T17:24:22;10.70;;;3.67;;
82473;SDS011;72149;53.232;6.556;2023-08-12T17:26:50;10.77;;;4.15;;
82473;SDS011;72149;53.232;6.556;2023-08-12T17:29:18;10.32;;;4.43;;
82473;SDS011;72149;53.232;6.556;2023-08-12T17:31:46;11.70;;;3.47;;
82473;SDS011;72149;53.232;6.556;2023-08-12T17:34:14;8.50;;;2.88;;
82473;SDS011;72149;53.232;6.556;2023-08-12T17:36:42;11.15;;;2.90;;
82473;SDS011;72149;53.232;6.556;2023-08-12T17:39:11;8.95;;;2.60;;
82473;SDS011;72149;53.232;6.556;2023-08-12T17:41:39;8.75;;;2.53;;
82473;SDS011;72149;53.232;6.556;2023-08-12T17:44:07;9.18;;;2.70;;
82473;SDS011;72149;53.232;6.556;2023-08-12T17:46:35;8.60;;;3.13;;
82473;SDS011;72149;53.232;6.556;2023-08-12T17:49:03;8.15;;;2.60;;
82473;SDS011;72149;53.232;6.556;2023-08-12T17:51:31;7.80;;;2.78;;
82473;SDS011;72149;53.232;6.556;2023-08-12T17:53:58;10.65;;;2.60;;
82473;SDS011;72149;53.232;6.556;2023-08-12T17:56:28;5.95;;;2.28;;
82473;SDS011;72149;53.232;6.556;2023-08-12T17:58:55;8.27;;;2.33;;
82473;SDS011;72149;53.232;6.556;2023-08-12T18:01:23;7.35;;;2.70;;
82473;SDS011;72149;53.232;6.556;2023-08-12T18:03:51;9.02;;;2.63;;
82473;SDS011;72149;53.232;6.556;2023-08-12T18:06:22;9.23;;;2.90;;
82473;SDS011;72149;53.232;6.556;2023-08-12T18:08:50;6.47;;;2.30;;
82473;SDS011;72149;53.232;6.556;2023-08-12T18:11:18;6.18;;;2.33;;
82473;SDS011;72149;53.232;6.556;2023-08-12T18:13:47;7.43;;;2.88;;
82473;SDS011;72149;53.232;6.556;2023-08-12T18:16:15;7.88;;;2.47;;
82473;SDS011;72149;53.232;6.556;2023-08-12T18:18:43;6.35;;;2.08;;
82473;SDS011;72149;53.232;6.556;2023-08-12T18:21:11;27.48;;;19.25;;
82473;SDS011;72149;53.232;6.556;2023-08-12T18:23:39;71.93;;;51.25;;
82473;SDS011;72149;53.232;6.556;2023-08-12T18:26:07;64.97;;;47.35;;
82473;SDS011;72149;53.232;6.556;2023-08-12T18:28:35;56.03;;;39.10;;
82473;SDS011;72149;53.232;6.556;2023-08-12T18:31:04;43.90;;;30.60;;
82473;SDS011;72149;53.232;6.556;2023-08-12T18:33:32;31.52;;;20.23;;
82473;SDS011;72149;53.232;6.556;2023-08-12T18:36:00;43.42;;;26.88;;
82473;SDS011;72149;53.232;6.556;2023-08-12T18:38:28;79.07;;;52.63;;
82473;SDS011;72149;53.232;6.556;2023-08-12T18:40:56;67.45;;;44.85;;
82473;SDS011;72149;53.232;6.556;2023-08-12T18:43:23;47.42;;;28.13;;
82473;SDS011;72149;53.232;6.556;2023-08-12T18:45:51;42.38;;;26.75;;
82473;SDS011;72149;53.232;6.556;2023-08-12T18:48:21;95.28;;;60.78;;
82473;SDS011;72149;53.232;6.556;2023-08-12T18:50:48;57.50;;;36.92;;
82473;SDS011;72149;53.232;6.556;2023-08-12T18:53:16;42.80;;;27.15;;
82473;SDS011;72149;53.232;6.556;2023-08-12T18:55:44;35.55;;;22.27;;
82473;SDS011;72149;53.232;6.556;2023-08-12T18:58:12;84.05;;;51.30;;
82473;SDS011;72149;53.232;6.556;2023-08-12T19:00:40;73.38;;;44.33;;
82473;SDS011;72149;53.232;6.556;2023-08-12T19:03:07;62.38;;;38.85;;
82473;SDS011;72149;53.232;6.556;2023-08-12T19:05:37;33.75;;;20.70;;
82473;SDS011;72149;53.232;6.556;2023-08-12T19:08:09;31.33;;;15.85;;
82473;SDS011;72149;53.232;6.556;2023-08-12T19:10:40;22.45;;;11.73;;
82473;SDS011;72149;53.232;6.556;2023-08-12T19:13:08;41.63;;;24.33;;
82473;SDS011;72149;53.232;6.556;2023-08-12T19:15:36;94.20;;;61.38;;
82473;SDS011;72149;53.232;6.556;2023-08-12T19:18:04;86.95;;;56.35;;
82473;SDS011;72149;53.232;6.556;2023-08-12T19:20:32;63.50;;;40.55;;
82473;SDS011;72149;53.232;6.556;2023-08-12T19:23:02;49.28;;;32.67;;
82473;SDS011;72149;53.232;6.556;2023-08-12T19:25:30;40.13;;;25.65;;
82473;SDS011;72149;53.232;6.556;2023-08-12T19:27:58;31.10;;;18.92;;
82473;SDS011;72149;53.232;6.556;2023-08-12T19:30:25;26.77;;;15.13;;
82473;SDS011;72149;53.232;6.556;2023-08-12T19:32:54;20.05;;;11.55;;
82473;SDS011;72149;53.232;6.556;2023-08-12T19:35:22;40.38;;;24.25;;
82473;SDS011;72149;53.232;6.556;2023-08-12T19:37:50;116.45;;;79.45;;
82473;SDS011;72149;53.232;6.556;2023-08-12T19:40:19;121.55;;;87.38;;
82473;SDS011;72149;53.232;6.556;2023-08-12T19:42:47;94.60;;;66.47;;
82473;SDS011;72149;53.232;6.556;2023-08-12T19:45:15;71.72;;;47.08;;
82473;SDS011;72149;53.232;6.556;2023-08-12T19:47:43;51.00;;;36.15;;
82473;SDS011;72149;53.232;6.556;2023-08-12T19:50:11;38.40;;;24.90;;
82473;SDS011;72149;53.232;6.556;2023-08-12T19:52:40;30.50;;;19.00;;
82473;SDS011;72149;53.232;6.556;2023-08-12T19:55:08;24.10;;;14.02;;
82473;SDS011;72149;53.232;6.556;2023-08-12T19:57:37;20.55;;;11.30;;
82473;SDS011;72149;53.232;6.556;2023-08-12T20:00:06;17.13;;;9.27;;
82473;SDS011;72149;53.232;6.556;2023-08-12T20:02:39;12.55;;;7.03;;
82473;SDS011;72149;53.232;6.556;2023-08-12T20:05:12;11.13;;;6.13;;
82473;SDS011;72149;53.232;6.556;2023-08-12T20:07:41;33.28;;;19.27;;
82473;SDS011;72149;53.232;6.556;2023-08-12T20:10:09;104.18;;;72.72;;
82473;SDS011;72149;53.232;6.556;2023-08-12T20:12:39;101.22;;;71.28;;
82473;SDS011;72149;53.232;6.556;2023-08-12T20:15:07;82.88;;;54.67;;
82473;SDS011;72149;53.232;6.556;2023-08-12T20:17:36;63.20;;;42.40;;
82473;SDS011;72149;53.232;6.556;2023-08-12T20:20:04;39.95;;;27.35;;
82473;SDS011;72149;53.232;6.556;2023-08-12T20:22:34;83.72;;;55.90;;
82473;SDS011;72149;53.232;6.556;2023-08-12T20:25:13;112.68;;;74.10;;
82473;SDS011;72149;53.232;6.556;2023-08-12T20:27:42;89.45;;;59.00;;
82473;SDS011;72149;53.232;6.556;2023-08-12T20:30:10;65.93;;;44.13;;
82473;SDS011;72149;53.232;6.556;2023-08-12T20:32:38;47.17;;;31.30;;
82473;SDS011;72149;53.232;6.556;2023-08-12T20:35:06;38.58;;;23.08;;
82473;SDS011;72149;53.232;6.556;2023-08-12T20:37:34;30.10;;;18.17;;
82473;SDS011;72149;53.232;6.556;2023-08-12T20:40:02;108.93;;;67.68;;
82473;SDS011;72149;53.232;6.556;2023-08-12T20:42:32;140.02;;;89.38;;
82473;SDS011;72149;53.232;6.556;2023-08-12T20:45:01;111.63;;;72.32;;
82473;SDS011;72149;53.232;6.556;2023-08-12T20:47:30;88.28;;;55.22;;
82473;SDS011;72149;53.232;6.556;2023-08-12T20:49:58;64.45;;;39.75;;
82473;SDS011;72149;53.232;6.556;2023-08-12T20:52:26;47.53;;;30.33;;
82473;SDS011;72149;53.232;6.556;2023-08-12T20:54:54;136.57;;;88.63;;
82473;SDS011;72149;53.232;6.556;2023-08-12T20:57:22;123.45;;;77.38;;
82473;SDS011;72149;53.232;6.556;2023-08-12T20:59:49;94.60;;;59.55;;
82473;SDS011;72149;53.232;6.556;2023-08-12T21:02:18;74.25;;;44.38;;
82473;SDS011;72149;53.232;6.556;2023-08-12T21:04:46;51.67;;;32.13;;
82473;SDS011;72149;53.232;6.556;2023-08-12T21:07:14;107.10;;;66.72;;
82473;SDS011;72149;53.232;6.556;2023-08-12T21:09:42;201.68;;;131.82;;
82473;SDS011;72149;53.232;6.556;2023-08-12T21:12:10;301.98;;;213.10;;
82473;SDS011;72149;53.232;6.556;2023-08-12T21:14:38;228.80;;;152.60;;
82473;SDS011;72149;53.232;6.556;2023-08-12T21:17:06;188.70;;;123.95;;
82473;SDS011;72149;53.232;6.556;2023-08-12T21:19:36;153.32;;;101.68;;
82473;SDS011;72149;53.232;6.556;2023-08-12T21:22:04;119.38;;;75.03;;
82473;SDS011;72149;53.232;6.556;2023-08-12T21:24:32;93.25;;;55.58;;
82473;SDS011;72149;53.232;6.556;2023-08-12T21:27:00;71.10;;;42.42;;
82473;SDS011;72149;53.232;6.556;2023-08-12T21:29:28;54.78;;;33.40;;
82473;SDS011;72149;53.232;6.556;2023-08-12T21:31:57;44.90;;;25.15;;
82473;SDS011;72149;53.232;6.556;2023-08-12T21:34:25;39.47;;;21.52;;
82473;SDS011;72149;53.232;6.556;2023-08-12T21:36:54;32.65;;;17.77;;
82473;SDS011;72149;53.232;6.556;2023-08-12T21:39:22;27.52;;;13.63;;
82473;SDS011;72149;53.232;6.556;2023-08-12T21:41:50;23.63;;;12.18;;
82473;SDS011;72149;53.232;6.556;2023-08-12T21:44:17;15.18;;;9.73;;
82473;SDS011;72149;53.232;6.556;2023-08-12T21:46:46;17.52;;;8.88;;
82473;SDS011;72149;53.232;6.556;2023-08-12T21:49:14;15.43;;;6.90;;
82473;SDS011;72149;53.232;6.556;2023-08-12T21:51:42;10.77;;;5.68;;
82473;SDS011;72149;53.232;6.556;2023-08-12T21:54:11;13.70;;;5.40;;
82473;SDS011;72149;53.232;6.556;2023-08-12T21:56:39;13.75;;;4.47;;
82473;SDS011;72149;53.232;6.556;2023-08-12T21:59:07;12.80;;;4.53;;
82473;SDS011;72149;53.232;6.556;2023-08-12T22:01:35;11.35;;;4.20;;
82473;SDS011;72149;53.232;6.556;2023-08-12T22:04:03;11.45;;;4.20;;
82473;SDS011;72149;53.232;6.556;2023-08-12T22:06:30;8.75;;;3.75;;
82473;SDS011;72149;53.232;6.556;2023-08-12T22:08:58;13.73;;;3.67;;
82473;SDS011;72149;53.232;6.556;2023-08-12T22:11:28;7.40;;;3.22;;
82473;SDS011;72149;53.232;6.556;2023-08-12T22:13:56;9.55;;;3.17;;
82473;SDS011;72149;53.232;6.556;2023-08-12T22:16:24;9.32;;;3.60;;
82473;SDS011;72149;53.232;6.556;2023-08-12T22:18:52;9.23;;;3.17;;
82473;SDS011;72149;53.232;6.556;2023-08-12T22:21:20;8.45;;;2.85;;
82473;SDS011;72149;53.232;6.556;2023-08-12T22:23:48;9.35;;;3.15;;
82473;SDS011;72149;53.232;6.556;2023-08-12T22:26:17;7.90;;;3.30;;
82473;SDS011;72149;53.232;6.556;2023-08-12T22:28:46;9.20;;;3.30;;
82473;SDS011;72149;53.232;6.556;2023-08-12T22:31:14;9.27;;;2.90;;
82473;SDS011;72149;53.232;6.556;2023-08-12T22:33:42;9.10;;;3.10;;
82473;SDS011;72149;53.232;6.556;2023-08-12T22:36:10;11.32;;;3.42;;
82473;SDS011;72149;53.232;6.556;2023-08-12T22:38:38;7.88;;;2.92;;
82473;SDS011;72149;53.232;6.556;2023-08-12T22:41:05;8.32;;;2.85;;
82473;SDS011;72149;53.232;6.556;2023-08-12T22:43:33;10.88;;;2.85;;
82473;SDS011;72149;53.232;6.556;2023-08-12T22:46:03;8.98;;;3.00;;
82473;SDS011;72149;53.232;6.556;2023-08-12T22:48:30;8.48;;;2.78;;
82473;SDS011;72149;53.232;6.556;2023-08-12T22:50:58;8.45;;;3.05;;
82473;SDS011;72149;53.232;6.556;2023-08-12T22:53:26;9.48;;;2.88;;
82473;SDS011;72149;53.232;6.556;2023-08-12T22:55:53;7.03;;;2.50;;
82473;SDS011;72149;53.232;6.556;2023-08-12T22:58:21;9.45;;;2.80;;
82473;SDS011;72149;53.232;6.556;2023-08-12T23:00:49;6.63;;;2.78;;
82473;SDS011;72149;53.232;6.556;2023-08-12T23:03:18;6.80;;;2.40;;
82473;SDS011;72149;53.232;6.556;2023-08-12T23:05:46;8.80;;;2.70;;
82473;SDS011;72149;53.232;6.556;2023-08-12T23:08:14;8.43;;;3.08;;
82473;SDS011;72149;53.232;6.556;2023-08-12T23:10:42;5.47;;;2.38;;
82473;SDS011;72149;53.232;6.556;2023-08-12T23:13:10;10.40;;;2.88;;
82473;SDS011;72149;53.232;6.556;2023-08-12T23:15:37;12.25;;;2.67;;
82473;SDS011;72149;53.232;6.556;2023-08-12T23:18:05;6.50;;;2.28;;
82473;SDS011;72149;53.232;6.556;2023-08-12T23:20:34;9.70;;;3.08;;
82473;SDS011;72149;53.232;6.556;2023-08-12T23:23:02;11.00;;;2.70;;
82473;SDS011;72149;53.232;6.556;2023-08-12T23:25:30;8.80;;;2.20;;
82473;SDS011;72149;53.232;6.556;2023-08-12T23:27:58;8.93;;;2.70;;
82473;SDS011;72149;53.232;6.556;2023-08-12T23:30:26;7.90;;;2.60;;
82473;SDS011;72149;53.232;6.556;2023-08-12T23:32:54;8.20;;;2.83;;
82473;SDS011;72149;53.232;6.556;2023-08-12T23:35:22;6.20;;;2.35;;
82473;SDS011;72149;53.232;6.556;2023-08-12T23:37:51;8.18;;;2.25;;
82473;SDS011;72149;53.232;6.556;2023-08-12T23:40:19;8.13;;;2.67;;
82473;SDS011;72149;53.232;6.556;2023-08-12T23:42:46;7.63;;;3.15;;
82473;SDS011;72149;53.232;6.556;2023-08-12T23:45:14;11.43;;;3.35;;
82473;SDS011;72149;53.232;6.556;2023-08-12T23:47:42;6.63;;;2.55;;
82473;SDS011;72149;53.232;6.556;2023-08-12T23:50:10;8.15;;;2.50;;
82473;SDS011;72149;53.232;6.556;2023-08-12T23:52:38;6.35;;;2.20;;
82473;SDS011;72149;53.232;6.556;2023-08-12T23:55:08;5.13;;;2.33;;
82473;SDS011;72149;53.232;6.556;2023-08-12T23:57:36;5.03;;;2.40;;
